ěÝzenÝ letovÚho provozu ╚eskÚ republiky
Letiste: LKPR Aktualizace: 10.08.2020 06:10:24  UTC
 METAR LKPR 10.08. 06:00 ...
METAR LKPR 100600Z 00000KT CAVOK 23/18 Q1018 NOSIG RMK REG QNH 1015=
 TAF LKPR 10.08. 05:00 ...
TAF LKPR 100500Z 1006/1112 VRB02KT CAVOK      BECMG 1008/1010 06008KT      TEMPO 1010/1019 9000 SHRA SCT045TCU      PROB40 TEMPO 1012/1017 04014G30KT 3000 TSRA SCT035CB      PROB30 TEMPO 1103/1112 04012G22KT 5000 TSRA SCT025CB BKN030=